Time;durP1;ratioP1;P1;durP2;ratioP2;P2;SDS_P1;SDS_P2;PMS_P1;PMS_P2;Temp;Humidity;BMP_temperature;BMP_pressure;BME280_temperature;BME280_humidity;BME280_pressure;Samples;Min_cycle;Max_cycle;Signal;HPM_P1;HPM_P2
2023/06/18 14:28:02;;;;;;;4.38;4.00;;;;;;;;;;5044330;28;20477;-77
2023/06/18 14:30:28;;;;;;;5.63;5.07;;;;;;;;;;5040808;28;20451;-77
2023/06/18 14:32:53;;;;;;;6.57;5.50;;;;;;;;;;5041856;28;20025;-77
2023/06/18 14:35:20;;;;;;;6.15;5.55;;;;;;;;;;5039109;28;20377;-77
2023/06/18 14:37:45;;;;;;;5.53;5.13;;;;;;;;;;5037801;28;20030;-77
2023/06/18 14:40:11;;;;;;;3.95;3.55;;;;;;;;;;5044534;28;20036;-77
2023/06/18 14:42:36;;;;;;;5.88;5.30;;;;;;;;;;5040274;28;20481;-77
2023/06/18 14:45:02;;;;;;;4.95;4.55;;;;;;;;;;5042798;28;20021;-77
2023/06/18 14:47:28;;;;;;;4.43;4.03;;;;;;;;;;5039634;28;20022;-77
2023/06/18 14:49:55;;;;;;;5.13;4.57;;;;;;;;;;5039050;28;20041;-77
2023/06/18 14:52:21;;;;;;;4.95;4.55;;;;;;;;;;5040587;28;20117;-77
2023/06/18 14:54:47;;;;;;;5.15;4.65;;;;;;;;;;5033330;28;20464;-77
2023/06/18 14:57:12;;;;;;;5.30;4.82;;;;;;;;;;5034954;28;20112;-77
2023/06/18 14:59:38;;;;;;;5.25;4.80;;;;;;;;;;5033255;28;20536;-77
2023/06/18 15:02:04;;;;;;;5.10;4.60;;;;;;;;;;5039161;28;20040;-77
2023/06/18 15:04:30;;;;;;;5.53;5.05;;;;;;;;;;5038535;28;20055;-77
2023/06/18 15:06:55;;;;;;;5.50;5.00;;;;;;;;;;5041596;28;20383;-76
2023/06/18 15:09:22;;;;;;;4.30;4.00;;;;;;;;;;5029120;28;20028;-76
2023/06/18 15:11:47;;;;;;;6.07;5.47;;;;;;;;;;5040514;28;20120;-76
2023/06/18 15:14:13;;;;;;;5.18;4.68;;;;;;;;;;5041152;28;20107;-77
2023/06/18 15:16:38;;;;;;;6.07;5.38;;;;;;;;;;5042941;28;20048;-77
2023/06/18 15:19:05;;;;;;;21.15;16.20;;;;;;;;;;5035135;28;20702;-77
2023/06/18 15:21:33;;;;;;;4.50;4.10;;;;;;;;;;5032178;28;20029;-77
2023/06/18 15:23:58;;;;;;;4.88;4.47;;;;;;;;;;5036161;28;20035;-78
2023/06/18 15:26:26;;;;;;;5.47;4.97;;;;;;;;;;5037501;28;20029;-78
2023/06/18 15:28:51;;;;;;;5.35;4.85;;;;;;;;;;5036809;28;20029;-76
2023/06/18 15:31:17;;;;;;;5.68;5.18;;;;;;;;;;5035127;28;20083;-77
2023/06/18 15:33:42;;;;;;;5.95;5.35;;;;;;;;;;5039319;28;20034;-76
2023/06/18 15:36:10;;;;;;;7.40;6.70;;;;;;;;;;5035666;28;20025;-77
2023/06/18 15:38:36;;;;;;;6.18;5.68;;;;;;;;;;5025643;28;20034;-77
2023/06/18 15:41:01;;;;;;;6.50;5.78;;;;;;;;;;5020235;28;20690;-76
2023/06/18 15:43:28;;;;;;;6.00;5.47;;;;;;;;;;5022478;28;20104;-76
2023/06/18 15:45:54;;;;;;;7.32;6.63;;;;;;;;;;5030660;28;20037;-77
2023/06/18 15:48:19;;;;;;;5.85;5.28;;;;;;;;;;5030184;28;20052;-78
2023/06/18 15:50:47;;;;;;;4.50;4.20;;;;;;;;;;5027979;28;20021;-78
2023/06/18 15:53:12;;;;;;;5.63;5.10;;;;;;;;;;5025912;28;20053;-77
2023/06/18 15:55:37;;;;;;;5.97;5.45;;;;;;;;;;5029325;28;20067;-78
2023/06/18 15:58:03;;;;;;;6.10;5.60;;;;;;;;;;5024322;28;20049;-77
2023/06/18 16:00:28;;;;;;;5.40;4.90;;;;;;;;;;5023256;28;20466;-76
2023/06/18 16:02:54;;;;;;;5.45;4.93;;;;;;;;;;5027354;28;20049;-77
2023/06/18 16:05:19;;;;;;;6.07;5.53;;;;;;;;;;5028287;28;20110;-77
2023/06/18 16:07:45;;;;;;;5.90;5.30;;;;;;;;;;5033375;28;20018;-77
2023/06/18 16:10:10;;;;;;;12.90;11.60;;;;;;;;;;5035285;28;20037;-75
2023/06/18 16:12:36;;;;;;;13.68;11.98;;;;;;;;;;5030703;28;20168;-77
2023/06/18 16:15:02;;;;;;;5.50;5.10;;;;;;;;;;5032242;28;20648;-77
2023/06/18 16:17:27;;;;;;;6.38;5.78;;;;;;;;;;5037123;28;20393;-77
2023/06/18 16:19:53;;;;;;;6.20;5.60;;;;;;;;;;5045006;28;20033;-76
2023/06/18 16:22:18;;;;;;;6.38;5.40;;;;;;;;;;5038194;28;20045;-77
2023/06/18 16:24:44;;;;;;;6.00;5.50;;;;;;;;;;5034154;28;21024;-77
2023/06/18 16:27:09;;;;;;;5.97;5.38;;;;;;;;;;5038069;28;20016;-76
2023/06/18 16:29:35;;;;;;;5.47;4.97;;;;;;;;;;5037722;28;20044;-77
2023/06/18 16:32:00;;;;;;;5.35;4.85;;;;;;;;;;5036154;28;20055;-76
2023/06/18 16:34:27;;;;;;;5.57;5.07;;;;;;;;;;5037556;28;20063;-77
2023/06/18 16:36:52;;;;;;;5.93;5.32;;;;;;;;;;5042471;28;20036;-77
2023/06/18 16:39:17;;;;;;;6.85;6.05;;;;;;;;;;5034771;28;20215;-77
2023/06/18 16:41:43;;;;;;;6.07;5.43;;;;;;;;;;5041354;28;20469;-77
2023/06/18 16:44:08;;;;;;;4.68;4.28;;;;;;;;;;5036751;28;20027;-77
2023/06/18 16:46:34;;;;;;;4.68;4.00;;;;;;;;;;5039577;28;20108;-77
2023/06/18 16:49:01;;;;;;;5.13;4.63;;;;;;;;;;5035053;28;20029;-76
2023/06/18 16:51:26;;;;;;;5.38;4.88;;;;;;;;;;5039225;28;20026;-76
2023/06/18 16:53:52;;;;;;;5.32;4.93;;;;;;;;;;5037334;28;20040;-76
2023/06/18 16:56:17;;;;;;;5.85;5.25;;;;;;;;;;5039390;28;20536;-76
2023/06/18 16:58:44;;;;;;;6.35;5.75;;;;;;;;;;5033635;28;20036;-78
2023/06/18 17:01:09;;;;;;;5.50;4.95;;;;;;;;;;5040035;28;20056;-76
2023/06/18 17:03:35;;;;;;;5.32;4.82;;;;;;;;;;5037859;28;20080;-76
2023/06/18 17:06:00;;;;;;;5.30;4.80;;;;;;;;;;5038039;28;20017;-76
2023/06/18 17:08:26;;;;;;;5.50;5.00;;;;;;;;;;5035895;28;20036;-77
2023/06/18 17:10:51;;;;;;;5.68;5.13;;;;;;;;;;5038718;28;20086;-77
2023/06/18 17:13:17;;;;;;;5.75;5.25;;;;;;;;;;5038630;28;20025;-76
2023/06/18 17:15:42;;;;;;;5.53;4.93;;;;;;;;;;5033410;28;20025;-76
2023/06/18 17:18:07;;;;;;;6.47;4.50;;;;;;;;;;5030950;28;20032;-77
2023/06/18 17:20:33;;;;;;;5.45;4.95;;;;;;;;;;5041417;28;20035;-77
2023/06/18 17:22:58;;;;;;;5.47;4.80;;;;;;;;;;5033321;28;20044;-76
2023/06/18 17:25:24;;;;;;;5.53;5.03;;;;;;;;;;5049817;28;20455;-78
2023/06/18 17:27:50;;;;;;;5.28;4.78;;;;;;;;;;5047158;28;20052;-76
2023/06/18 17:30:16;;;;;;;5.90;5.30;;;;;;;;;;5040413;28;20115;-76
2023/06/18 17:32:41;;;;;;;5.75;5.15;;;;;;;;;;5032450;28;20485;-76
2023/06/18 17:35:07;;;;;;;5.45;5.00;;;;;;;;;;5039345;28;20038;-76
2023/06/18 17:37:32;;;;;;;5.20;4.70;;;;;;;;;;5037738;28;20441;-76
2023/06/18 17:39:57;;;;;;;5.50;5.00;;;;;;;;;;5039999;28;20521;-76
2023/06/18 17:42:23;;;;;;;5.20;4.80;;;;;;;;;;5040151;28;20700;-75
2023/06/18 17:44:49;;;;;;;5.35;4.88;;;;;;;;;;5039701;28;20505;-75
2023/06/18 17:47:14;;;;;;;5.68;5.18;;;;;;;;;;5041316;28;20029;-76
2023/06/18 17:49:40;;;;;;;6.32;5.20;;;;;;;;;;5024991;28;20037;-74
2023/06/18 17:52:06;;;;;;;7.10;5.03;;;;;;;;;;5033887;28;20581;-76
2023/06/18 17:54:31;;;;;;;5.63;5.03;;;;;;;;;;5037439;28;20596;-76
2023/06/18 17:56:56;;;;;;;5.50;5.00;;;;;;;;;;5051385;28;20516;-76
2023/06/18 17:59:22;;;;;;;5.57;4.90;;;;;;;;;;5044297;28;20036;-76
2023/06/18 18:01:49;;;;;;;5.28;4.78;;;;;;;;;;5040274;28;20047;-75
2023/06/18 18:04:14;;;;;;;5.18;4.63;;;;;;;;;;5021715;28;20056;-74
2023/06/18 18:06:40;;;;;;;5.43;4.95;;;;;;;;;;5042012;28;20068;-75
2023/06/18 18:09:05;;;;;;;5.57;5.03;;;;;;;;;;5051466;28;20128;-75
2023/06/18 18:11:30;;;;;;;4.93;4.47;;;;;;;;;;5048661;28;20102;-75
2023/06/18 18:13:56;;;;;;;5.28;4.75;;;;;;;;;;5043826;28;20041;-76
2023/06/18 18:16:24;;;;;;;5.45;4.80;;;;;;;;;;5032070;28;20055;-75
2023/06/18 18:18:51;;;;;;;4.97;4.47;;;;;;;;;;5007252;28;20083;-76
2023/06/18 18:21:16;;;;;;;5.20;4.70;;;;;;;;;;5052722;28;20063;-76
2023/06/18 18:23:42;;;;;;;5.18;4.72;;;;;;;;;;5028886;28;20540;-77
2023/06/18 18:26:07;;;;;;;5.20;4.70;;;;;;;;;;5030515;28;20032;-74
2023/06/18 18:28:33;;;;;;;5.82;4.38;;;;;;;;;;5020377;28;20049;-76
2023/06/18 18:30:58;;;;;;;5.57;4.90;;;;;;;;;;5016762;28;20668;-76
2023/06/18 18:33:25;;;;;;;5.00;4.57;;;;;;;;;;5007809;28;20037;-75
2023/06/18 18:35:53;;;;;;;4.93;4.40;;;;;;;;;;5010417;28;20041;-75
2023/06/18 18:38:19;;;;;;;4.97;4.47;;;;;;;;;;5001589;28;20065;-76
2023/06/18 18:40:45;;;;;;;4.85;4.45;;;;;;;;;;5006014;28;20607;-75
2023/06/18 18:43:11;;;;;;;5.93;5.00;;;;;;;;;;5020327;28;20557;-75
2023/06/18 18:45:36;;;;;;;5.80;5.20;;;;;;;;;;4978867;28;20041;-76
2023/06/18 18:48:02;;;;;;;5.50;4.97;;;;;;;;;;5013309;28;20033;-76
2023/06/18 18:50:27;;;;;;;5.93;5.35;;;;;;;;;;5013370;28;20502;-75
2023/06/18 18:52:53;;;;;;;5.35;4.90;;;;;;;;;;5014169;28;20037;-76
2023/06/18 18:55:18;;;;;;;6.35;5.35;;;;;;;;;;5011776;28;20486;-76
2023/06/18 18:57:43;;;;;;;6.97;5.63;;;;;;;;;;5011678;28;20043;-76
2023/06/18 19:00:09;;;;;;;7.10;5.88;;;;;;;;;;5005345;28;20041;-75
2023/06/18 19:02:35;;;;;;;6.20;5.70;;;;;;;;;;5009089;28;20033;-75
2023/06/18 19:05:02;;;;;;;7.78;6.22;;;;;;;;;;5008417;28;20037;-76
2023/06/18 19:07:27;;;;;;;6.85;6.15;;;;;;;;;;5004907;28;20026;-75
2023/06/18 19:09:52;;;;;;;7.47;6.20;;;;;;;;;;5024713;28;20049;-76
2023/06/18 19:12:21;;;;;;;6.88;6.28;;;;;;;;;;5027100;28;20039;-75
2023/06/18 19:14:46;;;;;;;7.03;6.32;;;;;;;;;;5018489;28;20040;-75
2023/06/18 19:17:12;;;;;;;7.10;6.40;;;;;;;;;;5035105;28;20033;-76
2023/06/18 19:19:37;;;;;;;7.40;6.53;;;;;;;;;;5037210;28;20116;-75
2023/06/18 19:22:03;;;;;;;7.10;6.38;;;;;;;;;;5032640;28;20047;-75
2023/06/18 19:24:28;;;;;;;6.97;6.28;;;;;;;;;;5021959;28;20037;-76
2023/06/18 19:26:53;;;;;;;5.93;5.43;;;;;;;;;;5026590;28;20034;-74
2023/06/18 19:29:19;;;;;;;6.35;5.75;;;;;;;;;;5013762;28;20084;-74
2023/06/18 19:31:44;;;;;;;6.25;5.43;;;;;;;;;;5019780;28;20045;-75
2023/06/18 19:34:11;;;;;;;6.43;5.88;;;;;;;;;;5003562;28;20514;-76
2023/06/18 19:36:36;;;;;;;7.15;6.53;;;;;;;;;;5018106;28;20104;-76
2023/06/18 19:39:01;;;;;;;6.68;6.07;;;;;;;;;;5021595;28;20537;-74
2023/06/18 19:41:27;;;;;;;9.45;6.75;;;;;;;;;;5019294;28;20044;-75
2023/06/18 19:43:52;;;;;;;6.72;6.13;;;;;;;;;;5006098;28;20037;-75
2023/06/18 19:46:18;;;;;;;6.57;5.97;;;;;;;;;;5018334;28;20120;-75
2023/06/18 19:48:43;;;;;;;6.88;6.28;;;;;;;;;;5037112;28;20040;-75
2023/06/18 19:51:09;;;;;;;6.43;5.82;;;;;;;;;;5028852;28;20627;-75
2023/06/18 19:53:34;;;;;;;6.60;6.00;;;;;;;;;;5018280;28;20498;-77
2023/06/18 19:56:00;;;;;;;7.25;6.15;;;;;;;;;;4999449;28;20464;-76
2023/06/18 19:58:26;;;;;;;6.40;5.80;;;;;;;;;;5008285;28;20048;-77
2023/06/18 20:00:52;;;;;;;7.80;7.00;;;;;;;;;;5021218;28;20505;-76
2023/06/18 20:03:19;;;;;;;7.53;6.82;;;;;;;;;;5021806;28;20513;-74
2023/06/18 20:05:44;;;;;;;7.18;6.47;;;;;;;;;;5016295;28;20034;-75
2023/06/18 20:08:09;;;;;;;7.15;6.45;;;;;;;;;;5021816;28;20494;-76
2023/06/18 20:10:35;;;;;;;6.90;6.15;;;;;;;;;;4996660;28;20041;-75
2023/06/18 20:13:00;;;;;;;6.85;6.15;;;;;;;;;;5017366;28;20033;-76
2023/06/18 20:15:25;;;;;;;6.18;5.53;;;;;;;;;;5006126;28;20037;-74
2023/06/18 20:17:51;;;;;;;6.50;5.90;;;;;;;;;;5013090;28;20073;-75
2023/06/18 20:20:17;;;;;;;7.35;6.65;;;;;;;;;;4999383;28;20030;-76
2023/06/18 20:22:45;;;;;;;8.05;6.75;;;;;;;;;;5017589;28;20049;-75
2023/06/18 20:25:11;;;;;;;7.07;6.38;;;;;;;;;;5002792;28;20049;-76
2023/06/18 20:27:36;;;;;;;7.15;6.45;;;;;;;;;;5034199;28;20037;-77
2023/06/18 20:30:02;;;;;;;7.07;6.07;;;;;;;;;;5036729;28;20036;-74
2023/06/18 20:32:27;;;;;;;6.85;6.13;;;;;;;;;;5028002;28;20041;-76
2023/06/18 20:34:53;;;;;;;7.32;6.63;;;;;;;;;;5023295;28;20033;-74
2023/06/18 20:37:19;;;;;;;6.53;5.93;;;;;;;;;;5020768;28;20437;-75
2023/06/18 20:39:45;;;;;;;7.00;5.72;;;;;;;;;;5008857;28;20120;-75
2023/06/18 20:42:10;;;;;;;6.13;5.53;;;;;;;;;;5021304;28;20651;-76
2023/06/18 20:44:35;;;;;;;8.25;6.07;;;;;;;;;;5016550;28;20041;-76
2023/06/18 20:47:01;;;;;;;8.52;6.25;;;;;;;;;;5017157;28;20038;-73
2023/06/18 20:49:26;;;;;;;6.55;5.95;;;;;;;;;;5007926;28;20034;-76
2023/06/18 20:51:51;;;;;;;6.43;5.80;;;;;;;;;;5006838;28;20045;-76
2023/06/18 20:54:17;;;;;;;6.05;5.53;;;;;;;;;;5004134;28;20125;-75
2023/06/18 20:56:42;;;;;;;6.85;5.90;;;;;;;;;;5022350;28;20486;-76
2023/06/18 20:59:08;;;;;;;6.00;5.38;;;;;;;;;;5019662;28;20045;-74
2023/06/18 21:01:34;;;;;;;6.68;5.82;;;;;;;;;;5015300;28;20125;-76
2023/06/18 21:03:59;;;;;;;8.18;5.90;;;;;;;;;;5024925;28;20489;-74
2023/06/18 21:06:25;;;;;;;6.60;6.00;;;;;;;;;;5015284;28;20052;-74
2023/06/18 21:08:50;;;;;;;6.53;5.93;;;;;;;;;;5010046;28;20046;-76
2023/06/18 21:11:21;;;;;;;7.72;6.90;;;;;;;;;;5013401;28;20104;-75
2023/06/18 21:13:46;;;;;;;6.88;5.95;;;;;;;;;;5020569;28;20037;-74
2023/06/18 21:16:13;;;;;;;5.93;5.43;;;;;;;;;;5022492;28;20037;-75
2023/06/18 21:18:38;;;;;;;6.53;5.93;;;;;;;;;;5035186;28;20033;-74
2023/06/18 21:21:04;;;;;;;6.80;6.00;;;;;;;;;;5022331;28;20521;-74
2023/06/18 21:23:29;;;;;;;6.38;5.78;;;;;;;;;;5031094;28;20037;-75
2023/06/18 21:25:55;;;;;;;4.93;4.53;;;;;;;;;;5033856;28;20041;-74
2023/06/18 21:28:22;;;;;;;6.40;5.75;;;;;;;;;;5037739;28;20075;-75
2023/06/18 21:30:47;;;;;;;5.72;5.18;;;;;;;;;;5024581;28;20045;-75
2023/06/18 21:33:13;;;;;;;6.10;5.50;;;;;;;;;;5016617;28;20498;-74
2023/06/18 21:35:38;;;;;;;6.22;5.43;;;;;;;;;;5009241;28;20170;-76
2023/06/18 21:38:03;;;;;;;5.97;5.47;;;;;;;;;;5019942;28;20037;-74
2023/06/18 21:40:29;;;;;;;6.93;6.05;;;;;;;;;;5010205;28;20038;-76
2023/06/18 21:42:54;;;;;;;6.63;5.90;;;;;;;;;;4997973;28;20033;-75
2023/06/18 21:45:20;;;;;;;6.68;6.03;;;;;;;;;;5015346;28;20120;-76
2023/06/18 21:47:46;;;;;;;5.80;5.30;;;;;;;;;;5016209;28;20065;-75
2023/06/18 21:50:12;;;;;;;8.02;6.10;;;;;;;;;;5007594;28;20524;-74
2023/06/18 21:52:37;;;;;;;6.60;5.80;;;;;;;;;;5017971;28;20033;-75
2023/06/18 21:55:03;;;;;;;6.63;5.38;;;;;;;;;;5013680;28;20068;-75
2023/06/18 21:57:28;;;;;;;5.53;5.00;;;;;;;;;;5016265;28;20667;-76
2023/06/18 21:59:54;;;;;;;5.93;5.30;;;;;;;;;;5022295;28;20037;-75
2023/06/18 22:02:20;;;;;;;6.20;5.60;;;;;;;;;;5005268;28;20057;-74
2023/06/18 22:04:45;;;;;;;5.55;5.05;;;;;;;;;;5007887;28;20073;-75
2023/06/18 22:07:11;;;;;;;6.95;5.95;;;;;;;;;;5017164;23;20052;-77
2023/06/18 22:09:37;;;;;;;6.60;5.53;;;;;;;;;;4989913;28;20141;-76
2023/06/18 22:12:02;;;;;;;5.47;4.85;;;;;;;;;;4979564;28;20034;-76
2023/06/18 22:14:28;;;;;;;5.72;5.22;;;;;;;;;;4993926;28;20072;-75
2023/06/18 22:16:53;;;;;;;5.97;5.38;;;;;;;;;;4954874;28;20031;-75
2023/06/18 22:19:19;;;;;;;6.30;5.70;;;;;;;;;;4975958;28;20129;-76
2023/06/18 22:21:44;;;;;;;6.43;5.72;;;;;;;;;;4980954;28;20605;-76
2023/06/18 22:24:11;;;;;;;6.40;5.68;;;;;;;;;;4973951;28;20061;-77
2023/06/18 22:26:37;;;;;;;6.68;5.05;;;;;;;;;;4974789;28;20502;-76
2023/06/18 22:29:03;;;;;;;6.28;5.68;;;;;;;;;;4976338;28;20053;-76
2023/06/18 22:31:28;;;;;;;6.13;5.53;;;;;;;;;;4973228;28;20037;-76
2023/06/18 22:33:54;;;;;;;6.30;5.70;;;;;;;;;;4982231;28;20034;-76
2023/06/18 22:36:20;;;;;;;6.10;5.50;;;;;;;;;;4983970;28;20046;-76
2023/06/18 22:38:45;;;;;;;6.35;5.57;;;;;;;;;;4979058;28;20383;-76
2023/06/18 22:41:10;;;;;;;6.38;5.75;;;;;;;;;;4974387;28;20069;-76
2023/06/18 22:43:36;;;;;;;6.22;5.63;;;;;;;;;;4977416;28;20042;-76
2023/06/18 22:46:04;;;;;;;6.20;5.60;;;;;;;;;;4949290;28;20082;-77
2023/06/18 22:48:30;;;;;;;5.57;5.07;;;;;;;;;;4961088;28;20043;-76
2023/06/18 22:50:55;;;;;;;5.90;5.07;;;;;;;;;;4980363;28;20069;-77
2023/06/18 22:53:20;;;;;;;6.50;5.28;;;;;;;;;;4978307;28;20518;-77
2023/06/18 22:55:46;;;;;;;5.18;4.72;;;;;;;;;;4979610;28;20060;-77
2023/06/18 22:58:11;;;;;;;6.20;4.90;;;;;;;;;;4986198;28;20046;-77
2023/06/18 23:00:37;;;;;;;4.88;4.47;;;;;;;;;;4974230;28;20085;-77
2023/06/18 23:03:03;;;;;;;6.60;5.00;;;;;;;;;;4979648;28;20046;-76
2023/06/18 23:05:28;;;;;;;5.38;4.82;;;;;;;;;;4978505;28;20137;-75
2023/06/18 23:07:54;;;;;;;5.25;4.75;;;;;;;;;;4979501;28;20066;-77
2023/06/18 23:10:19;;;;;;;6.82;5.40;;;;;;;;;;4977688;28;20054;-76
2023/06/18 23:12:45;;;;;;;6.00;5.40;;;;;;;;;;4980396;28;20031;-76
2023/06/18 23:15:11;;;;;;;5.75;5.25;;;;;;;;;;4974666;28;20031;-77
2023/06/18 23:17:41;;;;;;;6.40;4.95;;;;;;;;;;4979008;28;20031;-76
2023/06/18 23:20:11;;;;;;;5.22;4.72;;;;;;;;;;4964432;28;20518;-75
2023/06/18 23:22:42;;;;;;;5.65;4.72;;;;;;;;;;4979219;28;20042;-75
2023/06/18 23:25:08;;;;;;;5.82;4.70;;;;;;;;;;4978208;28;20536;-75
2023/06/18 23:27:40;;;;;;;5.63;4.90;;;;;;;;;;4969683;28;20043;-76
2023/06/18 23:30:07;;;;;;;6.50;5.28;;;;;;;;;;4987653;28;20026;-76
2023/06/18 23:32:34;;;;;;;6.63;5.78;;;;;;;;;;4967800;28;20101;-76
2023/06/18 23:35:01;;;;;;;6.63;5.93;;;;;;;;;;4980233;28;20128;-76
2023/06/18 23:37:27;;;;;;;6.90;5.70;;;;;;;;;;4976665;28;20035;-77
2023/06/18 23:39:53;;;;;;;7.32;6.00;;;;;;;;;;4967543;28;20606;-76
2023/06/18 23:42:18;;;;;;;6.35;5.75;;;;;;;;;;4977648;28;20031;-76
2023/06/18 23:44:44;;;;;;;6.50;5.90;;;;;;;;;;4977307;28;20105;-76
2023/06/18 23:47:09;;;;;;;4.43;4.03;;;;;;;;;;4981792;28;20096;-76
2023/06/18 23:49:35;;;;;;;7.75;6.68;;;;;;;;;;4978904;28;20057;-76
2023/06/18 23:52:01;;;;;;;6.45;5.85;;;;;;;;;;4978035;28;20026;-76
2023/06/18 23:54:26;;;;;;;6.75;6.05;;;;;;;;;;4965985;28;20038;-75
2023/06/18 23:56:52;;;;;;;5.65;5.03;;;;;;;;;;4978959;28;20910;-76
2023/06/18 23:59:18;;;;;;;6.93;5.35;;;;;;;;;;4974316;28;20617;-75
